createdAt,value
2023-05-17T00:01:44.349Z,99.90
2023-05-17T00:04:09.385Z,99.90
2023-05-17T00:06:35.111Z,99.90
2023-05-17T00:09:00.357Z,99.90
2023-05-17T00:11:25.216Z,99.90
2023-05-17T00:13:51.434Z,99.90
2023-05-17T00:16:16.098Z,99.90
2023-05-17T00:18:40.773Z,99.90
2023-05-17T00:21:05.681Z,99.90
2023-05-17T00:23:30.558Z,99.90
2023-05-17T00:25:55.633Z,99.90
2023-05-17T00:28:20.377Z,99.90
2023-05-17T00:30:46.866Z,99.90
2023-05-17T00:33:11.601Z,99.90
2023-05-17T00:35:36.298Z,99.90
2023-05-17T00:38:01.189Z,99.90
2023-05-17T00:40:28.232Z,99.90
2023-05-17T00:42:53.192Z,99.90
2023-05-17T00:45:20.263Z,99.90
2023-05-17T00:47:46.504Z,99.90
2023-05-17T00:50:12.327Z,99.90
2023-05-17T00:52:37.283Z,99.90
2023-05-17T00:55:02.203Z,99.90
2023-05-17T00:57:32.306Z,99.90
2023-05-17T01:00:00.177Z,99.90
2023-05-17T01:02:24.871Z,99.90
2023-05-17T01:04:51.347Z,99.90
2023-05-17T01:07:16.329Z,99.90
2023-05-17T01:09:45.444Z,99.90
2023-05-17T01:12:22.695Z,99.90
2023-05-17T01:14:56.008Z,99.90
2023-05-17T01:17:26.786Z,99.90
2023-05-17T01:20:07.122Z,99.90
2023-05-17T01:22:47.130Z,99.90
2023-05-17T01:25:30.631Z,99.90
2023-05-17T01:28:01.768Z,99.90
2023-05-17T01:30:27.030Z,99.90
2023-05-17T01:32:52.780Z,99.90
2023-05-17T01:35:18.089Z,99.90
2023-05-17T01:37:42.798Z,99.90
2023-05-17T01:40:10.387Z,99.90
2023-05-17T01:42:37.258Z,99.90
2023-05-17T01:45:07.780Z,99.90
2023-05-17T01:47:41.048Z,99.90
2023-05-17T01:50:08.576Z,99.90
2023-05-17T01:52:39.725Z,99.90
2023-05-17T01:55:10.395Z,99.90
2023-05-17T01:57:37.760Z,99.90
2023-05-17T02:00:06.386Z,99.90
2023-05-17T02:02:40.961Z,99.90
2023-05-17T02:05:07.848Z,99.90
2023-05-17T02:07:33.024Z,99.90
2023-05-17T02:09:57.776Z,99.90
2023-05-17T02:12:22.430Z,99.90
2023-05-17T02:14:47.450Z,99.90
2023-05-17T02:17:13.749Z,99.90
2023-05-17T02:19:38.512Z,99.90
2023-05-17T02:22:05.272Z,99.90
2023-05-17T02:24:30.048Z,99.90
2023-05-17T02:26:54.977Z,99.90
2023-05-17T02:29:19.688Z,99.90
2023-05-17T02:31:44.353Z,99.90
2023-05-17T02:34:10.694Z,99.90
2023-05-17T02:36:35.407Z,99.90
2023-05-17T02:39:00.040Z,99.90
2023-05-17T02:41:24.760Z,99.90
2023-05-17T02:43:49.649Z,99.90
2023-05-17T02:46:14.175Z,99.90
2023-05-17T02:48:38.824Z,99.90
2023-05-17T02:51:04.933Z,99.90
2023-05-17T02:53:30.204Z,99.90
2023-05-17T02:55:59.109Z,99.90
2023-05-17T02:58:23.768Z,99.90
2023-05-17T03:00:48.411Z,99.90
2023-05-17T03:03:13.703Z,99.90
2023-05-17T03:05:38.304Z,99.90
2023-05-17T03:08:04.496Z,99.90
2023-05-17T03:10:29.168Z,99.90
2023-05-17T03:12:54.333Z,99.90
2023-05-17T03:15:23.019Z,99.90
2023-05-17T03:17:47.763Z,99.90
2023-05-17T03:20:14.668Z,99.90
2023-05-17T03:22:39.981Z,99.90
2023-05-17T03:25:08.695Z,99.90
2023-05-17T03:27:34.908Z,99.90
2023-05-17T03:29:59.563Z,99.90
2023-05-17T03:32:24.879Z,99.90
2023-05-17T03:34:50.080Z,99.90
2023-05-17T03:37:15.091Z,99.90
2023-05-17T03:39:40.198Z,99.90
2023-05-17T03:42:07.798Z,99.90
2023-05-17T03:44:33.401Z,99.90
2023-05-17T03:46:58.291Z,99.90
2023-05-17T03:49:22.940Z,99.90
2023-05-17T03:51:48.808Z,99.90
2023-05-17T03:54:15.259Z,99.90
2023-05-17T03:56:40.124Z,99.90
2023-05-17T03:59:06.217Z,99.90
2023-05-17T04:01:30.913Z,99.90
2023-05-17T04:03:56.139Z,99.90
2023-05-17T04:06:21.567Z,99.90
2023-05-17T04:08:46.426Z,99.90
2023-05-17T04:11:13.490Z,99.90
2023-05-17T04:13:38.970Z,99.90
2023-05-17T04:16:05.988Z,99.90
2023-05-17T04:18:30.877Z,99.90
2023-05-17T04:20:57.169Z,99.90
2023-05-17T04:23:22.274Z,99.90
2023-05-17T04:25:47.452Z,99.90
2023-05-17T04:28:13.006Z,99.90
2023-05-17T04:30:38.027Z,99.90
2023-05-17T04:33:04.425Z,99.90
2023-05-17T04:35:29.625Z,99.90
2023-05-17T04:37:54.976Z,99.90
2023-05-17T04:40:21.509Z,99.90
2023-05-17T04:42:47.725Z,99.90
2023-05-17T04:45:25.144Z,99.90
2023-05-17T04:47:51.212Z,99.90
2023-05-17T04:50:18.590Z,99.90
2023-05-17T04:52:43.595Z,99.90
2023-05-17T04:55:10.704Z,99.90
2023-05-17T04:57:36.047Z,99.90
2023-05-17T05:00:04.305Z,99.90
2023-05-17T05:02:31.852Z,99.90
2023-05-17T05:05:07.894Z,99.90
2023-05-17T05:07:35.245Z,99.90
2023-05-17T05:10:01.603Z,99.90
2023-05-17T05:12:29.167Z,99.90
2023-05-17T05:14:54.198Z,99.90
2023-05-17T05:17:19.178Z,99.90
2023-05-17T05:19:44.590Z,99.90
2023-05-17T05:22:10.507Z,99.90
2023-05-17T05:24:38.455Z,99.90
2023-05-17T05:27:07.165Z,99.90
2023-05-17T05:29:33.607Z,99.90
2023-05-17T05:32:01.412Z,99.90
2023-05-17T05:34:32.100Z,99.90
2023-05-17T05:36:58.848Z,99.90
2023-05-17T05:39:23.621Z,99.90
2023-05-17T05:41:49.805Z,99.90
2023-05-17T05:44:14.662Z,99.90
2023-05-17T05:46:39.574Z,99.90
2023-05-17T05:49:05.091Z,99.90
2023-05-17T05:51:31.742Z,99.90
2023-05-17T05:53:56.520Z,99.90
2023-05-17T05:56:21.529Z,99.90
2023-05-17T05:58:47.779Z,99.90
2023-05-17T06:01:12.529Z,99.90
2023-05-17T06:03:38.685Z,99.90
2023-05-17T06:06:03.617Z,99.90
2023-05-17T06:08:28.513Z,99.90
2023-05-17T06:10:53.342Z,99.90
2023-05-17T06:13:18.629Z,99.90
2023-05-17T06:15:45.169Z,99.90
2023-05-17T06:18:10.487Z,99.90
2023-05-17T06:20:38.002Z,99.90
2023-05-17T06:23:05.273Z,99.90
2023-05-17T06:25:30.134Z,99.90
2023-05-17T06:27:55.173Z,99.90
2023-05-17T06:30:20.329Z,99.90
2023-05-17T06:32:46.934Z,99.90
2023-05-17T06:35:13.124Z,99.90
2023-05-17T06:37:38.152Z,99.90
2023-05-17T06:40:16.690Z,99.90
2023-05-17T06:42:42.400Z,99.90
2023-05-17T06:45:08.550Z,99.90
2023-05-17T06:47:34.661Z,99.90
2023-05-17T06:50:05.781Z,99.90
2023-05-17T06:52:40.426Z,99.90
2023-05-17T06:55:05.947Z,99.90
2023-05-17T06:57:32.132Z,99.90
2023-05-17T06:59:57.549Z,99.90
2023-05-17T07:02:22.709Z,99.90
2023-05-17T07:04:49.826Z,99.90
2023-05-17T07:07:16.124Z,99.90
2023-05-17T07:09:45.611Z,99.90
2023-05-17T07:12:13.309Z,99.90
2023-05-17T07:14:38.156Z,99.90
2023-05-17T07:17:03.117Z,99.90
2023-05-17T07:19:27.967Z,99.90
2023-05-17T07:21:52.737Z,99.90
2023-05-17T07:24:20.439Z,99.90
2023-05-17T07:26:45.378Z,99.90
2023-05-17T07:29:09.879Z,99.90
2023-05-17T07:31:36.140Z,99.90
2023-05-17T07:34:04.062Z,99.90
2023-05-17T07:36:31.008Z,99.90
2023-05-17T07:38:55.884Z,99.90
2023-05-17T07:41:23.483Z,99.90
2023-05-17T07:43:51.144Z,99.90
2023-05-17T07:46:15.782Z,99.90
2023-05-17T07:48:40.481Z,99.90
2023-05-17T07:51:08.348Z,99.90
2023-05-17T07:53:36.132Z,99.90
2023-05-17T07:56:01.383Z,99.90
2023-05-17T07:58:27.889Z,99.90
2023-05-17T08:00:52.677Z,99.90
2023-05-17T08:03:17.761Z,99.90
2023-05-17T08:05:42.662Z,99.90
2023-05-17T08:08:07.618Z,99.90
2023-05-17T08:10:34.526Z,99.90
2023-05-17T08:12:59.899Z,99.90
2023-05-17T08:15:26.597Z,99.90
2023-05-17T08:17:51.629Z,99.90
2023-05-17T08:20:16.916Z,99.90
2023-05-17T08:22:42.122Z,99.90
2023-05-17T08:25:08.228Z,99.90
2023-05-17T08:27:33.168Z,99.90
2023-05-17T08:29:58.399Z,99.90
2023-05-17T08:32:25.581Z,99.90
2023-05-17T08:34:50.672Z,99.90
2023-05-17T08:37:15.547Z,99.90
2023-05-17T08:39:40.542Z,99.90
2023-05-17T08:42:09.308Z,99.90
2023-05-17T08:44:34.158Z,99.90
2023-05-17T08:47:01.557Z,99.90
2023-05-17T08:49:32.237Z,99.90
2023-05-17T08:51:59.044Z,99.90
2023-05-17T08:54:24.209Z,99.90
2023-05-17T08:56:52.704Z,99.90
2023-05-17T08:59:17.660Z,99.90
2023-05-17T09:01:45.388Z,99.90
2023-05-17T09:04:11.165Z,99.90
2023-05-17T09:06:38.259Z,99.90
2023-05-17T09:09:03.684Z,99.90
2023-05-17T09:11:30.491Z,99.90
2023-05-17T09:13:55.733Z,99.90
2023-05-17T09:16:22.585Z,99.90
2023-05-17T09:18:56.247Z,99.90
2023-05-17T09:21:22.467Z,99.90
2023-05-17T09:24:04.715Z,99.90
2023-05-17T09:26:40.642Z,99.90
2023-05-17T09:29:10.385Z,99.90
2023-05-17T09:31:35.090Z,99.90
2023-05-17T09:34:02.282Z,99.90
2023-05-17T09:36:27.572Z,99.90
2023-05-17T09:38:58.928Z,99.90
2023-05-17T09:41:28.409Z,99.90
2023-05-17T09:43:55.505Z,99.90
2023-05-17T09:46:21.966Z,99.90
2023-05-17T09:48:47.014Z,99.90
2023-05-17T09:51:11.978Z,99.90
2023-05-17T09:53:40.873Z,99.90
2023-05-17T09:56:08.157Z,99.90
2023-05-17T09:58:34.541Z,99.90
2023-05-17T10:01:01.904Z,99.90
2023-05-17T10:03:31.669Z,99.90
2023-05-17T10:05:56.929Z,99.90
2023-05-17T10:08:26.300Z,99.90
2023-05-17T10:10:51.834Z,99.90
2023-05-17T10:13:24.941Z,99.90
2023-05-17T10:15:52.600Z,99.90
2023-05-17T10:18:18.963Z,99.90
2023-05-17T10:20:45.244Z,99.90
2023-05-17T10:23:12.085Z,99.90
2023-05-17T10:25:37.526Z,99.90
2023-05-17T10:28:09.258Z,99.90
2023-05-17T10:30:36.944Z,99.90
2023-05-17T10:33:02.794Z,99.90
2023-05-17T10:35:29.485Z,99.90
2023-05-17T10:37:54.792Z,99.90
2023-05-17T10:40:21.385Z,99.90
2023-05-17T10:42:52.181Z,99.90
2023-05-17T10:45:21.858Z,99.90
2023-05-17T10:47:49.761Z,99.90
2023-05-17T10:50:15.476Z,99.90
2023-05-17T10:52:46.824Z,99.90
2023-05-17T10:55:12.722Z,99.90
2023-05-17T10:57:50.452Z,99.90
2023-05-17T11:00:22.372Z,99.90
2023-05-17T11:02:50.900Z,99.90
2023-05-17T11:05:28.775Z,99.90
2023-05-17T11:07:55.972Z,99.90
2023-05-17T11:10:20.746Z,99.90
2023-05-17T11:12:48.252Z,99.90
2023-05-17T11:15:15.017Z,99.90
2023-05-17T11:17:57.156Z,99.90
2023-05-17T11:20:43.888Z,99.90
2023-05-17T11:23:18.956Z,99.90
2023-05-17T11:25:52.164Z,99.90
2023-05-17T11:28:20.880Z,99.90
2023-05-17T11:30:56.874Z,99.90
2023-05-17T11:33:40.015Z,99.90
2023-05-17T11:36:16.579Z,99.90
2023-05-17T11:38:48.193Z,99.90
2023-05-17T11:41:26.955Z,99.90
2023-05-17T11:43:53.510Z,99.90
2023-05-17T11:46:24.797Z,99.90
2023-05-17T11:48:52.259Z,99.90
2023-05-17T11:51:31.465Z,99.90
2023-05-17T11:54:03.973Z,99.90
2023-05-17T11:56:42.653Z,99.90
2023-05-17T11:59:13.243Z,99.90
2023-05-17T12:02:15.107Z,99.90
2023-05-17T12:05:41.592Z,99.90
2023-05-17T12:08:08.038Z,99.90
2023-05-17T12:10:34.764Z,99.90
2023-05-17T12:13:06.268Z,99.90
2023-05-17T12:15:34.485Z,99.90
2023-05-17T12:17:59.363Z,99.90
2023-05-17T12:20:30.260Z,99.90
2023-05-17T12:22:59.159Z,99.90
2023-05-17T12:25:28.248Z,99.90
2023-05-17T12:27:54.701Z,99.90
2023-05-17T12:30:35.895Z,99.90
2023-05-17T12:33:00.960Z,99.90
2023-05-17T12:35:28.196Z,99.90
2023-05-17T12:37:55.648Z,99.90
2023-05-17T12:40:23.137Z,99.90
2023-05-17T12:42:49.946Z,99.90
2023-05-17T12:45:16.967Z,99.90
2023-05-17T12:47:42.273Z,99.90
2023-05-17T12:50:07.842Z,99.90
2023-05-17T12:52:36.947Z,99.90
2023-05-17T12:55:03.743Z,99.90
2023-05-17T12:57:30.386Z,99.90
2023-05-17T12:59:56.511Z,99.90
2023-05-17T13:02:21.857Z,99.90
2023-05-17T13:04:46.672Z,99.90
2023-05-17T13:07:11.684Z,99.90
2023-05-17T13:09:46.965Z,99.60
2023-05-17T13:12:21.433Z,96.00
2023-05-17T13:14:47.800Z,92.60
2023-05-17T13:17:22.778Z,92.30
2023-05-17T13:19:48.314Z,92.20
2023-05-17T13:22:13.152Z,92.80
2023-05-17T13:24:44.048Z,93.30
2023-05-17T13:27:09.527Z,93.30
2023-05-17T13:29:40.558Z,93.40
2023-05-17T13:32:09.792Z,93.10
2023-05-17T13:34:40.776Z,93.50
2023-05-17T13:37:09.407Z,93.20
2023-05-17T13:39:36.305Z,93.10
2023-05-17T13:42:01.124Z,93.70
2023-05-17T13:44:25.953Z,93.50
2023-05-17T13:46:51.305Z,93.50
2023-05-17T13:49:16.013Z,93.10
2023-05-17T13:51:43.402Z,93.00
2023-05-17T13:54:08.499Z,93.30
2023-05-17T13:56:33.431Z,93.50
2023-05-17T13:58:58.910Z,93.50
2023-05-17T14:01:23.727Z,93.60
2023-05-17T14:03:48.683Z,93.80
2023-05-17T14:06:14.147Z,94.00
2023-05-17T14:08:42.218Z,93.90
2023-05-17T14:11:07.017Z,94.20
2023-05-17T14:13:32.113Z,94.30
2023-05-17T14:15:56.854Z,94.20
2023-05-17T14:18:22.288Z,94.50
2023-05-17T14:20:47.583Z,94.40
2023-05-17T14:23:12.413Z,94.70
2023-05-17T14:25:38.927Z,94.80
2023-05-17T14:28:03.690Z,94.80
2023-05-17T14:30:29.479Z,94.70
2023-05-17T14:32:55.089Z,95.00
2023-05-17T14:35:20.102Z,95.20
2023-05-17T14:37:44.881Z,95.10
2023-05-17T14:40:10.316Z,94.90
2023-05-17T14:42:36.993Z,95.00
2023-05-17T14:45:02.141Z,95.30
2023-05-17T14:47:33.417Z,95.70
2023-05-17T14:49:59.986Z,95.40
2023-05-17T14:52:25.817Z,94.90
2023-05-17T14:54:50.565Z,94.90
2023-05-17T14:57:15.729Z,94.80
2023-05-17T14:59:43.800Z,94.60
2023-05-17T15:02:09.865Z,94.60
2023-05-17T15:04:34.817Z,94.80
2023-05-17T15:07:15.002Z,94.40
2023-05-17T15:09:45.284Z,94.70
2023-05-17T15:12:13.114Z,94.30
2023-05-17T15:14:39.273Z,94.60
2023-05-17T15:17:06.265Z,94.00
2023-05-17T15:19:31.104Z,94.20
2023-05-17T15:21:55.970Z,94.10
2023-05-17T15:24:20.945Z,94.40
2023-05-17T15:26:45.760Z,94.30
2023-05-17T15:29:10.933Z,94.00
2023-05-17T15:31:35.686Z,93.90
2023-05-17T15:34:01.795Z,94.00
2023-05-17T15:36:26.795Z,93.80
2023-05-17T15:38:51.406Z,93.70
2023-05-17T15:41:19.210Z,93.90
2023-05-17T15:43:44.347Z,93.70
2023-05-17T15:46:11.930Z,93.80
2023-05-17T15:48:36.905Z,93.90
2023-05-17T15:51:03.948Z,93.60
2023-05-17T15:53:30.073Z,93.60
2023-05-17T15:55:55.161Z,93.90
2023-05-17T15:58:20.323Z,94.00
2023-05-17T16:00:45.441Z,94.10
2023-05-17T16:03:10.132Z,94.20
2023-05-17T16:05:34.930Z,94.40
2023-05-17T16:08:01.604Z,94.50
2023-05-17T16:10:26.439Z,94.50
2023-05-17T16:12:52.383Z,94.80
2023-05-17T16:15:17.325Z,94.80
2023-05-17T16:17:42.076Z,94.80
2023-05-17T16:20:09.094Z,95.10
2023-05-17T16:22:34.215Z,95.10
2023-05-17T16:25:00.740Z,95.00
2023-05-17T16:27:25.355Z,95.00
2023-05-17T16:29:50.181Z,95.10
2023-05-17T16:32:14.827Z,95.10
2023-05-17T16:34:39.750Z,95.20
2023-05-17T16:37:06.409Z,95.30
2023-05-17T16:39:31.691Z,95.40
2023-05-17T16:41:58.015Z,95.30
2023-05-17T16:44:22.888Z,95.40
2023-05-17T16:46:47.609Z,95.20
2023-05-17T16:49:12.556Z,95.10
2023-05-17T16:51:37.101Z,94.70
2023-05-17T16:54:01.879Z,94.80
2023-05-17T16:56:26.824Z,94.60
2023-05-17T16:58:53.626Z,94.30
2023-05-17T17:01:21.814Z,94.30
2023-05-17T17:03:48.542Z,94.20
2023-05-17T17:06:16.969Z,94.30
2023-05-17T17:08:41.961Z,94.00
2023-05-17T17:11:06.951Z,93.90
2023-05-17T17:13:31.695Z,93.90
2023-05-17T17:15:57.820Z,93.50
2023-05-17T17:18:22.934Z,93.00
2023-05-17T17:20:47.853Z,92.90
2023-05-17T17:23:12.837Z,92.90
2023-05-17T17:25:37.458Z,92.70
2023-05-17T17:28:02.524Z,93.00
2023-05-17T17:30:27.416Z,93.20
2023-05-17T17:32:54.061Z,92.90
2023-05-17T17:35:18.935Z,93.10
2023-05-17T17:37:43.777Z,93.20
2023-05-17T17:40:10.098Z,93.30
2023-05-17T17:42:35.018Z,93.30
2023-05-17T17:44:59.829Z,93.40
2023-05-17T17:47:24.519Z,93.30
2023-05-17T17:49:50.915Z,93.40
2023-05-17T17:52:15.754Z,93.30
2023-05-17T17:54:40.302Z,93.20
2023-05-17T17:57:05.313Z,92.90
2023-05-17T17:59:30.104Z,93.00
2023-05-17T18:01:55.284Z,92.80
2023-05-17T18:04:20.285Z,93.00
2023-05-17T18:06:46.773Z,93.00
2023-05-17T18:09:11.829Z,93.00
2023-05-17T18:11:37.132Z,93.20
2023-05-17T18:14:02.589Z,92.90
2023-05-17T18:16:27.639Z,93.00
2023-05-17T18:18:54.605Z,93.10
2023-05-17T18:21:19.580Z,93.30
2023-05-17T18:23:46.256Z,93.40
2023-05-17T18:26:14.582Z,93.80
2023-05-17T18:28:42.754Z,93.70
2023-05-17T18:31:08.608Z,93.80
2023-05-17T18:33:37.534Z,93.60
2023-05-17T18:36:02.414Z,93.50
2023-05-17T18:38:29.096Z,93.50
2023-05-17T18:40:56.461Z,93.60
2023-05-17T18:43:24.531Z,93.40
2023-05-17T18:45:49.637Z,93.30
2023-05-17T18:48:14.973Z,93.30
2023-05-17T18:50:40.208Z,93.40
2023-05-17T18:53:05.874Z,93.50
2023-05-17T18:56:03.645Z,93.30
2023-05-17T18:58:31.503Z,93.30
2023-05-17T19:01:02.952Z,93.70
2023-05-17T19:03:28.715Z,93.60
2023-05-17T19:05:54.815Z,93.60
2023-05-17T19:08:19.929Z,93.60
2023-05-17T19:10:45.524Z,93.40
2023-05-17T19:13:13.962Z,93.30
2023-05-17T19:15:46.944Z,93.40
2023-05-17T19:18:14.285Z,93.60
2023-05-17T19:20:39.608Z,93.70
2023-05-17T19:23:04.876Z,93.90
2023-05-17T19:25:30.438Z,93.90
2023-05-17T19:27:55.391Z,94.00
2023-05-17T19:30:20.394Z,94.10
2023-05-17T19:32:46.666Z,94.30
2023-05-17T19:35:15.539Z,94.60
2023-05-17T19:37:41.359Z,94.70
2023-05-17T19:40:11.725Z,94.90
2023-05-17T19:42:36.671Z,95.00
2023-05-17T19:45:03.078Z,95.30
2023-05-17T19:47:31.013Z,95.20
2023-05-17T19:49:57.390Z,95.40
2023-05-17T19:52:22.805Z,95.60
2023-05-17T19:54:50.001Z,95.70
2023-05-17T19:57:16.334Z,95.80
2023-05-17T19:59:42.148Z,96.00
2023-05-17T20:02:08.052Z,96.00
2023-05-17T20:04:37.248Z,96.10
2023-05-17T20:07:04.748Z,96.30
2023-05-17T20:09:32.147Z,96.40
2023-05-17T20:11:57.489Z,96.60
2023-05-17T20:14:22.517Z,96.60
2023-05-17T20:16:47.966Z,96.60
2023-05-17T20:19:17.634Z,96.70
2023-05-17T20:21:45.488Z,96.70
2023-05-17T20:24:15.097Z,96.80
2023-05-17T20:26:42.897Z,96.90
2023-05-17T20:29:11.424Z,97.00
2023-05-17T20:31:37.242Z,97.10
2023-05-17T20:34:06.546Z,97.10
2023-05-17T20:36:31.612Z,97.20
2023-05-17T20:38:56.353Z,97.20
2023-05-17T20:41:22.620Z,97.30
2023-05-17T20:43:49.719Z,97.30
2023-05-17T20:46:14.842Z,97.20
2023-05-17T20:48:42.767Z,97.40
2023-05-17T20:51:17.758Z,97.40
2023-05-17T20:53:42.793Z,97.40
2023-05-17T20:56:08.360Z,97.70
2023-05-17T20:58:34.709Z,97.80
2023-05-17T21:01:01.194Z,97.80
2023-05-17T21:03:28.411Z,97.90
2023-05-17T21:05:53.310Z,97.90
2023-05-17T21:08:17.785Z,98.00
2023-05-17T21:10:46.508Z,98.10
2023-05-17T21:13:12.578Z,98.20
2023-05-17T21:15:38.707Z,98.50
2023-05-17T21:18:03.607Z,98.70
2023-05-17T21:20:29.044Z,99.00
2023-05-17T21:22:53.790Z,99.20
2023-05-17T21:25:18.735Z,99.40
2023-05-17T21:27:45.080Z,99.40
2023-05-17T21:30:10.882Z,99.90
2023-05-17T21:32:37.166Z,99.90
2023-05-17T21:35:01.865Z,99.90
2023-05-17T21:37:28.374Z,99.90
2023-05-17T21:39:53.019Z,99.90
2023-05-17T21:42:17.874Z,99.90
2023-05-17T21:44:42.446Z,99.90
2023-05-17T21:47:07.274Z,99.90
2023-05-17T21:49:33.418Z,99.90
2023-05-17T21:52:03.279Z,99.90
2023-05-17T21:54:28.296Z,99.90
2023-05-17T21:56:52.951Z,99.90
2023-05-17T21:59:17.974Z,99.90
2023-05-17T22:01:42.629Z,99.90
2023-05-17T22:04:08.572Z,99.90
2023-05-17T22:06:35.083Z,99.90
2023-05-17T22:08:59.880Z,99.90
2023-05-17T22:11:27.474Z,99.90
2023-05-17T22:13:52.530Z,99.90
2023-05-17T22:16:18.890Z,99.90
2023-05-17T22:18:45.777Z,99.90
2023-05-17T22:21:14.548Z,99.90
2023-05-17T22:23:42.217Z,99.90
2023-05-17T22:26:07.234Z,99.90
2023-05-17T22:28:32.166Z,99.90
2023-05-17T22:30:56.986Z,99.90
2023-05-17T22:33:22.467Z,99.90
2023-05-17T22:35:47.304Z,99.90
2023-05-17T22:38:11.927Z,99.90
2023-05-17T22:40:38.008Z,99.90
2023-05-17T22:43:02.544Z,99.90
2023-05-17T22:45:33.299Z,99.90
2023-05-17T22:47:58.554Z,99.90
2023-05-17T22:50:24.644Z,99.90
2023-05-17T22:52:50.823Z,99.90
2023-05-17T22:55:15.879Z,99.90
2023-05-17T22:57:42.581Z,99.90
2023-05-17T23:00:11.485Z,99.90
2023-05-17T23:02:36.619Z,99.90
2023-05-17T23:05:03.788Z,99.90
2023-05-17T23:07:36.954Z,99.90
2023-05-17T23:10:03.423Z,99.90
2023-05-17T23:12:29.286Z,99.90
2023-05-17T23:14:58.132Z,99.90
2023-05-17T23:17:22.864Z,99.90
2023-05-17T23:19:47.916Z,99.90
2023-05-17T23:22:12.952Z,99.90
2023-05-17T23:24:38.932Z,99.90
2023-05-17T23:27:04.268Z,99.90
2023-05-17T23:29:28.850Z,99.90
2023-05-17T23:31:55.458Z,99.90
2023-05-17T23:34:21.358Z,99.90
2023-05-17T23:36:46.105Z,99.90
2023-05-17T23:39:11.546Z,99.90
2023-05-17T23:41:37.984Z,99.90
2023-05-17T23:44:03.097Z,99.90
2023-05-17T23:46:28.013Z,99.90
2023-05-17T23:48:54.243Z,99.90
2023-05-17T23:51:20.548Z,99.90
2023-05-17T23:53:45.293Z,99.90
2023-05-17T23:56:10.279Z,99.90
2023-05-17T23:58:34.914Z,99.90
